DAL9009 KLAX-KORD
Flight info
| Callsign | DAL9009 |
|---|---|
| Flight time | 3h 24m |
| Altitude | 37000 |
| Route | LAXX1 TRM PKE J96 CIM SLN MCW JVL1 |
| Aircraft | L101/H-SDFHIRWXY/S |
Departure
| Time | 2026-05-06 03:13 |
|---|---|
| Airport | Los Angeles International Airport (KLAX) |
Arrival
| Time | 2026-05-06 06:37 |
|---|---|
| Airport | Chicago O'Hare International Airport (KORD) |
| Time | Latitude | Longitude | Altitude | Speed | Heading |
|---|---|---|---|---|---|
| 2026-05-06 02:32 | 33.94603 | -118.40809 | 101 ft | 0 kts | 112° |
| 2026-05-06 02:49 | 33.94609 | -118.40836 | 100 ft | 0 kts | 88° |
| 2026-05-06 02:51 | 33.94642 | -118.40839 | 98 ft | 0 kts | 85° |
| 2026-05-06 02:51 | 33.94475 | -118.41001 | 98 ft | 0 kts | 261° |
| 2026-05-06 02:54 | 33.94475 | -118.41000 | 98 ft | 1 kts | 261° |
| 2026-05-06 02:54 | 33.94478 | -118.40970 | 98 ft | 3 kts | 262° |
| 2026-05-06 02:55 | 33.94482 | -118.40938 | 98 ft | 2 kts | 262° |
| 2026-05-06 02:55 | 33.94487 | -118.40912 | 98 ft | 3 kts | 244° |
| 2026-05-06 02:55 | 33.94503 | -118.40889 | 99 ft | 3 kts | 201° |
| 2026-05-06 02:55 | 33.94529 | -118.40884 | 97 ft | 3 kts | 175° |
| 2026-05-06 02:56 | 33.94554 | -118.40888 | 97 ft | 3 kts | 173° |
| 2026-05-06 02:56 | 33.94581 | -118.40892 | 97 ft | 3 kts | 173° |
| 2026-05-06 02:56 | 33.94607 | -118.40896 | 97 ft | 3 kts | 173° |
| 2026-05-06 02:56 | 33.94633 | -118.40900 | 99 ft | 3 kts | 173° |
| 2026-05-06 02:57 | 33.94660 | -118.40904 | 98 ft | 3 kts | 173° |
| 2026-05-06 02:57 | 33.94687 | -118.40908 | 98 ft | 3 kts | 173° |
| 2026-05-06 02:57 | 33.94712 | -118.40913 | 98 ft | 3 kts | 160° |
| 2026-05-06 02:57 | 33.94733 | -118.40927 | 98 ft | 3 kts | 128° |
| 2026-05-06 02:58 | 33.94743 | -118.40955 | 100 ft | 3 kts | 89° |
| 2026-05-06 02:58 | 33.94741 | -118.40985 | 97 ft | 3 kts | 83° |
| 2026-05-06 02:58 | 33.94739 | -118.40999 | 98 ft | 7 kts | 83° |
| 2026-05-06 03:02 | 33.94739 | -118.40997 | 85 ft | 1 kts | 83° |
| 2026-05-06 03:02 | 33.94742 | -118.40968 | 85 ft | 6 kts | 83° |
| 2026-05-06 03:02 | 33.94748 | -118.40923 | 100 ft | 1 kts | 79° |
| 2026-05-06 03:02 | 33.94758 | -118.40898 | 99 ft | 5 kts | 52° |
| 2026-05-06 03:03 | 33.94794 | -118.40887 | 101 ft | 6 kts | 347° |
| 2026-05-06 03:03 | 33.94822 | -118.40927 | 102 ft | 7 kts | 285° |
| 2026-05-06 03:03 | 33.94822 | -118.40997 | 101 ft | 10 kts | 263° |
| 2026-05-06 03:03 | 33.94813 | -118.41089 | 100 ft | 13 kts | 263° |
| 2026-05-06 03:04 | 33.94800 | -118.41207 | 101 ft | 16 kts | 261° |
| 2026-05-06 03:04 | 33.94778 | -118.41283 | 100 ft | 9 kts | 213° |
| 2026-05-06 03:04 | 33.94712 | -118.41287 | 98 ft | 12 kts | 175° |
| 2026-05-06 03:04 | 33.94618 | -118.41275 | 99 ft | 15 kts | 173° |
| 2026-05-06 03:05 | 33.94503 | -118.41258 | 98 ft | 18 kts | 172° |
| 2026-05-06 03:05 | 33.94416 | -118.41243 | 101 ft | 20 kts | 172° |
| 2026-05-06 03:05 | 33.94225 | -118.41214 | 99 ft | 23 kts | 173° |
| 2026-05-06 03:05 | 33.94058 | -118.41189 | 98 ft | 25 kts | 173° |
| 2026-05-06 03:06 | 33.93940 | -118.41172 | 100 ft | 15 kts | 173° |
| 2026-05-06 03:06 | 33.93839 | -118.41158 | 100 ft | 15 kts | 174° |
| 2026-05-06 03:06 | 33.93780 | -118.41143 | 97 ft | 8 kts | 139° |
| 2026-05-06 03:06 | 33.93768 | -118.41075 | 99 ft | 10 kts | 86° |
| 2026-05-06 03:07 | 33.93777 | -118.40975 | 98 ft | 14 kts | 84° |
| 2026-05-06 03:07 | 33.93788 | -118.40846 | 99 ft | 17 kts | 84° |
| 2026-05-06 03:07 | 33.93807 | -118.40694 | 99 ft | 20 kts | 79° |
| 2026-05-06 03:07 | 33.93826 | -118.40520 | 102 ft | 22 kts | 84° |
| 2026-05-06 03:08 | 33.93843 | -118.40332 | 102 ft | 24 kts | 81° |
| 2026-05-06 03:08 | 33.93865 | -118.40130 | 104 ft | 23 kts | 81° |
| 2026-05-06 03:08 | 33.93886 | -118.39929 | 101 ft | 26 kts | 83° |
| 2026-05-06 03:08 | 33.93908 | -118.39702 | 100 ft | 28 kts | 83° |
| 2026-05-06 03:09 | 33.93933 | -118.39462 | 100 ft | 30 kts | 83° |
| 2026-05-06 03:09 | 33.93954 | -118.39252 | 102 ft | 25 kts | 83° |
| 2026-05-06 03:09 | 33.93975 | -118.39041 | 99 ft | 26 kts | 84° |
| 2026-05-06 03:09 | 33.93999 | -118.38812 | 99 ft | 29 kts | 82° |
| 2026-05-06 03:10 | 33.94026 | -118.38567 | 101 ft | 27 kts | 83° |
| 2026-05-06 03:10 | 33.94040 | -118.38401 | 103 ft | 19 kts | 85° |
| 2026-05-06 03:10 | 33.94059 | -118.38230 | 100 ft | 22 kts | 84° |
| 2026-05-06 03:10 | 33.94076 | -118.38078 | 98 ft | 5 kts | 83° |
| 2026-05-06 03:11 | 33.94079 | -118.38045 | 98 ft | 0 kts | 84° |
| 2026-05-06 03:11 | 33.94078 | -118.38036 | 98 ft | 3 kts | 98° |
| 2026-05-06 03:11 | 33.94058 | -118.38006 | 100 ft | 7 kts | 148° |
| 2026-05-06 03:11 | 33.94003 | -118.37996 | 99 ft | 5 kts | 180° |
| 2026-05-06 03:12 | 33.93986 | -118.38024 | 100 ft | 5 kts | 259° |
| 2026-05-06 03:12 | 33.93961 | -118.38257 | 104 ft | 69 kts | 264° |
| 2026-05-06 03:12 | 33.93859 | -118.39206 | 100 ft | 156 kts | 263° |
| 2026-05-06 03:12 | 33.93713 | -118.40582 | 495 ft | 194 kts | 262° |
| 2026-05-06 03:13 | 33.93515 | -118.42262 | 1571 ft | 210 kts | 262° |
| 2026-05-06 03:13 | 33.93382 | -118.43402 | 2257 ft | 191 kts | 262° |
| 2026-05-06 03:13 | 33.93219 | -118.44764 | 3250 ft | 146 kts | 263° |
| 2026-05-06 03:13 | 33.93078 | -118.45879 | 3965 ft | 126 kts | 262° |
| 2026-05-06 03:14 | 33.92783 | -118.46847 | 4306 ft | 127 kts | 240° |
| 2026-05-06 03:14 | 33.92232 | -118.47728 | 4589 ft | 138 kts | 233° |
| 2026-05-06 03:14 | 33.91578 | -118.48702 | 5040 ft | 163 kts | 232° |
| 2026-05-06 03:14 | 33.90799 | -118.49853 | 5045 ft | 186 kts | 233° |
| 2026-05-06 03:15 | 33.89907 | -118.50984 | 4959 ft | 190 kts | 216° |
| 2026-05-06 03:15 | 33.88681 | -118.51566 | 5044 ft | 187 kts | 196° |
| 2026-05-06 03:15 | 33.87411 | -118.51886 | 5731 ft | 187 kts | 192° |
| 2026-05-06 03:15 | 33.86181 | -118.52152 | 6753 ft | 172 kts | 191° |
| 2026-05-06 03:16 | 33.85043 | -118.52392 | 7654 ft | 164 kts | 191° |
| 2026-05-06 03:16 | 33.83865 | -118.52646 | 8365 ft | 184 kts | 191° |
| 2026-05-06 03:16 | 33.82528 | -118.52951 | 8957 ft | 204 kts | 191° |
| 2026-05-06 03:16 | 33.81116 | -118.53285 | 9505 ft | 209 kts | 191° |
| 2026-05-06 03:17 | 33.79677 | -118.53632 | 10024 ft | 213 kts | 191° |
| 2026-05-06 03:17 | 33.78224 | -118.53986 | 10429 ft | 215 kts | 191° |
| 2026-05-06 03:17 | 33.76703 | -118.54359 | 10569 ft | 229 kts | 191° |
| 2026-05-06 03:17 | 33.75083 | -118.54734 | 10630 ft | 246 kts | 183° |
| 2026-05-06 03:18 | 33.73360 | -118.54420 | 10780 ft | 260 kts | 154° |
| 2026-05-06 03:18 | 33.71840 | -118.53154 | 10941 ft | 274 kts | 133° |
| 2026-05-06 03:18 | 33.70548 | -118.51397 | 11061 ft | 290 kts | 126° |
| 2026-05-06 03:18 | 33.69314 | -118.49397 | 11225 ft | 305 kts | 123° |
| 2026-05-06 03:19 | 33.68084 | -118.47258 | 11352 ft | 318 kts | 122° |
| 2026-05-06 03:19 | 33.66832 | -118.45015 | 11484 ft | 330 kts | 121° |
| 2026-05-06 03:19 | 33.65745 | -118.42569 | 11599 ft | 337 kts | 107° |
| 2026-05-06 03:19 | 33.65194 | -118.39812 | 11724 ft | 338 kts | 96° |
| 2026-05-06 03:20 | 33.64694 | -118.34307 | 11995 ft | 347 kts | 92° |
| 2026-05-06 03:20 | 33.64516 | -118.31383 | 12123 ft | 354 kts | 92° |
| 2026-05-06 03:20 | 33.64351 | -118.28428 | 12313 ft | 350 kts | 91° |
| 2026-05-06 03:21 | 33.64201 | -118.25517 | 13332 ft | 352 kts | 91° |
| 2026-05-06 03:21 | 33.64064 | -118.22561 | 14555 ft | 360 kts | 90° |
| 2026-05-06 03:21 | 33.64115 | -118.19559 | 15754 ft | 361 kts | 77° |
| 2026-05-06 03:21 | 33.65013 | -118.16771 | 16992 ft | 362 kts | 57° |
| 2026-05-06 03:22 | 33.66596 | -118.14459 | 18306 ft | 366 kts | 43° |
| 2026-05-06 03:22 | 33.68582 | -118.12469 | 19514 ft | 369 kts | 36° |
| 2026-05-06 03:22 | 33.70685 | -118.10746 | 20733 ft | 372 kts | 33° |
| 2026-05-06 03:22 | 33.72882 | -118.09087 | 22034 ft | 373 kts | 36° |
| 2026-05-06 03:23 | 33.74800 | -118.06958 | 23379 ft | 373 kts | 54° |
| 2026-05-06 03:23 | 33.75953 | -118.04173 | 24518 ft | 375 kts | 73° |
| 2026-05-06 03:23 | 33.76255 | -118.01103 | 25694 ft | 378 kts | 90° |
| 2026-05-06 03:23 | 33.75984 | -117.97927 | 26959 ft | 376 kts | 95° |
| 2026-05-06 03:24 | 33.75662 | -117.94828 | 28274 ft | 371 kts | 93° |
| 2026-05-06 03:24 | 33.75436 | -117.91768 | 29650 ft | 365 kts | 91° |
| 2026-05-06 03:24 | 33.75255 | -117.88754 | 30913 ft | 356 kts | 91° |
| 2026-05-06 03:24 | 33.75073 | -117.85829 | 32144 ft | 346 kts | 92° |
| 2026-05-06 03:25 | 33.74889 | -117.83036 | 33395 ft | 332 kts | 92° |
| 2026-05-06 03:25 | 33.74708 | -117.80356 | 34484 ft | 305 kts | 92° |
| 2026-05-06 03:25 | 33.74540 | -117.77863 | 34678 ft | 304 kts | 92° |
| 2026-05-06 03:25 | 33.74386 | -117.75500 | 34659 ft | 309 kts | 92° |
| 2026-05-06 03:26 | 33.74042 | -117.70263 | 34726 ft | 319 kts | 92° |
| 2026-05-06 03:26 | 33.73684 | -117.64905 | 34907 ft | 324 kts | 92° |
| 2026-05-06 03:27 | 33.73501 | -117.62193 | 35019 ft | 326 kts | 92° |
| 2026-05-06 03:27 | 33.73316 | -117.59466 | 35137 ft | 328 kts | 92° |
| 2026-05-06 03:27 | 33.73131 | -117.56727 | 35246 ft | 330 kts | 93° |
| 2026-05-06 03:27 | 33.72944 | -117.53974 | 35352 ft | 332 kts | 93° |
| 2026-05-06 03:28 | 33.72561 | -117.48414 | 35563 ft | 335 kts | 93° |
| 2026-05-06 03:28 | 33.72369 | -117.45621 | 35666 ft | 337 kts | 94° |
| 2026-05-06 03:28 | 33.72173 | -117.42804 | 35784 ft | 339 kts | 94° |
| 2026-05-06 03:29 | 33.71976 | -117.39978 | 35893 ft | 340 kts | 94° |
| 2026-05-06 03:29 | 33.71776 | -117.37148 | 36005 ft | 341 kts | 94° |
| 2026-05-06 03:29 | 33.71374 | -117.31456 | 36224 ft | 343 kts | 94° |
| 2026-05-06 03:30 | 33.71171 | -117.28590 | 36330 ft | 344 kts | 94° |
| 2026-05-06 03:30 | 33.70967 | -117.25722 | 36443 ft | 345 kts | 94° |
| 2026-05-06 03:30 | 33.70762 | -117.22845 | 36544 ft | 346 kts | 94° |
| 2026-05-06 03:30 | 33.70556 | -117.19963 | 36651 ft | 347 kts | 94° |
| 2026-05-06 03:31 | 33.70351 | -117.17105 | 36806 ft | 348 kts | 95° |
| 2026-05-06 03:31 | 33.70139 | -117.14148 | 36796 ft | 353 kts | 95° |
| 2026-05-06 03:31 | 33.69928 | -117.11211 | 36949 ft | 364 kts | 95° |
| 2026-05-06 03:31 | 33.69704 | -117.08113 | 37057 ft | 379 kts | 95° |
| 2026-05-06 03:32 | 33.69237 | -117.01650 | 37064 ft | 389 kts | 95° |
| 2026-05-06 03:32 | 33.68764 | -116.95159 | 37074 ft | 390 kts | 95° |
| 2026-05-06 03:33 | 33.67979 | -116.88757 | 37060 ft | 390 kts | 97° |
| 2026-05-06 03:33 | 33.67546 | -116.82257 | 37041 ft | 392 kts | 93° |
| 2026-05-06 03:34 | 33.67331 | -116.75662 | 37037 ft | 399 kts | 93° |
| 2026-05-06 03:34 | 33.67126 | -116.68943 | 37016 ft | 405 kts | 93° |
| 2026-05-06 03:35 | 33.66927 | -116.62140 | 36980 ft | 410 kts | 93° |
| 2026-05-06 03:35 | 33.66829 | -116.58662 | 36970 ft | 424 kts | 93° |
| 2026-05-06 03:35 | 33.66728 | -116.55062 | 36977 ft | 437 kts | 93° |
| 2026-05-06 03:36 | 33.66624 | -116.51374 | 36975 ft | 449 kts | 93° |
| 2026-05-06 03:36 | 33.66519 | -116.47579 | 36954 ft | 461 kts | 93° |
| 2026-05-06 03:36 | 33.66412 | -116.43679 | 36969 ft | 472 kts | 93° |
| 2026-05-06 03:36 | 33.66304 | -116.39705 | 36955 ft | 483 kts | 93° |
| 2026-05-06 03:37 | 33.66195 | -116.35625 | 36941 ft | 494 kts | 93° |
| 2026-05-06 03:37 | 33.66086 | -116.31464 | 36937 ft | 504 kts | 93° |
| 2026-05-06 03:37 | 33.65869 | -116.22895 | 36925 ft | 523 kts | 93° |
| 2026-05-06 03:38 | 33.65652 | -116.14053 | 36915 ft | 533 kts | 92° |
| 2026-05-06 03:38 | 33.65677 | -116.05229 | 36881 ft | 534 kts | 79° |
| 2026-05-06 03:39 | 33.66756 | -116.00981 | 37017 ft | 534 kts | 65° |
| 2026-05-06 03:39 | 33.68406 | -115.96984 | 36861 ft | 534 kts | 62° |
| 2026-05-06 03:39 | 33.71860 | -115.89060 | 36813 ft | 535 kts | 61° |
| 2026-05-06 03:40 | 33.75323 | -115.81143 | 36873 ft | 536 kts | 61° |
| 2026-05-06 03:40 | 33.78804 | -115.73217 | 36883 ft | 536 kts | 61° |
| 2026-05-06 03:41 | 33.82294 | -115.65300 | 36889 ft | 536 kts | 61° |
| 2026-05-06 03:41 | 33.85805 | -115.57361 | 36890 ft | 539 kts | 61° |
| 2026-05-06 03:42 | 33.89336 | -115.49412 | 36876 ft | 538 kts | 60° |
| 2026-05-06 03:42 | 33.92860 | -115.41465 | 36872 ft | 538 kts | 64° |
| 2026-05-06 03:43 | 33.94047 | -115.37193 | 36859 ft | 538 kts | 82° |
| 2026-05-06 03:43 | 33.94238 | -115.32709 | 36875 ft | 539 kts | 97° |
| 2026-05-06 03:43 | 33.93444 | -115.28328 | 36772 ft | 533 kts | 114° |
| 2026-05-06 03:43 | 33.91755 | -115.24407 | 36845 ft | 526 kts | 123° |
| 2026-05-06 03:44 | 33.88891 | -115.16303 | 36849 ft | 535 kts | 107° |
| 2026-05-06 03:44 | 33.87953 | -115.07402 | 36872 ft | 539 kts | 89° |
| 2026-05-06 03:45 | 33.89064 | -114.98496 | 36871 ft | 541 kts | 71° |
| 2026-05-06 03:45 | 33.90657 | -114.94411 | 36931 ft | 539 kts | 54° |
| 2026-05-06 03:45 | 33.93076 | -114.90991 | 36881 ft | 535 kts | 37° |
| 2026-05-06 03:46 | 33.96124 | -114.88506 | 36872 ft | 527 kts | 23° |
| 2026-05-06 03:46 | 33.99412 | -114.86565 | 36956 ft | 528 kts | 26° |
| 2026-05-06 03:46 | 34.02287 | -114.84198 | 36767 ft | 535 kts | 40° |
| 2026-05-06 03:46 | 34.04734 | -114.80801 | 36680 ft | 539 kts | 56° |
| 2026-05-06 03:47 | 34.08201 | -114.72784 | 36849 ft | 541 kts | 65° |
| 2026-05-06 03:47 | 34.11038 | -114.64363 | 36871 ft | 542 kts | 70° |
| 2026-05-06 03:48 | 34.13561 | -114.55804 | 36875 ft | 542 kts | 70° |
| 2026-05-06 03:48 | 34.16091 | -114.47233 | 36871 ft | 542 kts | 70° |
| 2026-05-06 03:49 | 34.18547 | -114.38636 | 36863 ft | 541 kts | 71° |
| 2026-05-06 03:49 | 34.20979 | -114.30028 | 36864 ft | 542 kts | 71° |
| 2026-05-06 03:50 | 34.23401 | -114.21411 | 36865 ft | 542 kts | 71° |
| 2026-05-06 03:50 | 34.25818 | -114.12776 | 36865 ft | 542 kts | 71° |
| 2026-05-06 03:51 | 34.28218 | -114.04142 | 36863 ft | 543 kts | 72° |
| 2026-05-06 03:51 | 34.30576 | -113.95527 | 36864 ft | 543 kts | 72° |
| 2026-05-06 03:52 | 34.32943 | -113.86906 | 36873 ft | 537 kts | 71° |
| 2026-05-06 03:52 | 34.35313 | -113.78334 | 36867 ft | 537 kts | 71° |
| 2026-05-06 03:53 | 34.37684 | -113.69736 | 36861 ft | 539 kts | 72° |
| 2026-05-06 03:53 | 34.40048 | -113.61126 | 36871 ft | 539 kts | 72° |
| 2026-05-06 03:54 | 34.42408 | -113.52506 | 36870 ft | 539 kts | 72° |
| 2026-05-06 03:54 | 34.44761 | -113.43882 | 36871 ft | 539 kts | 72° |
| 2026-05-06 03:55 | 34.47113 | -113.35242 | 36875 ft | 540 kts | 72° |
| 2026-05-06 03:55 | 34.49460 | -113.26589 | 36875 ft | 540 kts | 72° |
| 2026-05-06 03:56 | 34.51800 | -113.17937 | 36879 ft | 540 kts | 72° |
| 2026-05-06 03:56 | 34.54152 | -113.09280 | 36872 ft | 542 kts | 70° |
| 2026-05-06 03:57 | 34.57155 | -113.00848 | 36887 ft | 545 kts | 65° |
| 2026-05-06 03:57 | 34.60256 | -112.92462 | 36886 ft | 544 kts | 71° |
| 2026-05-06 03:58 | 34.61143 | -112.88015 | 36912 ft | 540 kts | 88° |
| 2026-05-06 03:58 | 34.61033 | -112.83485 | 36872 ft | 536 kts | 104° |
| 2026-05-06 03:58 | 34.60004 | -112.74599 | 36809 ft | 542 kts | 90° |
| 2026-05-06 03:59 | 34.60564 | -112.70077 | 36922 ft | 546 kts | 73° |
| 2026-05-06 03:59 | 34.62074 | -112.65830 | 36798 ft | 550 kts | 57° |
| 2026-05-06 03:59 | 34.64452 | -112.62236 | 36804 ft | 547 kts | 40° |
| 2026-05-06 03:59 | 34.67375 | -112.59303 | 36937 ft | 545 kts | 41° |
| 2026-05-06 04:00 | 34.69889 | -112.55826 | 36662 ft | 550 kts | 58° |
| 2026-05-06 04:00 | 34.71527 | -112.51654 | 36690 ft | 548 kts | 75° |
| 2026-05-06 04:00 | 34.72408 | -112.47169 | 36971 ft | 546 kts | 81° |
| 2026-05-06 04:00 | 34.72836 | -112.44153 | 36978 ft | 547 kts | 84° |
| 2026-05-06 04:01 | 34.73664 | -112.34948 | 37020 ft | 547 kts | 89° |
| 2026-05-06 04:01 | 34.74207 | -112.30363 | 37002 ft | 551 kts | 77° |
| 2026-05-06 04:01 | 34.75372 | -112.25911 | 37002 ft | 553 kts | 71° |
| 2026-05-06 04:02 | 34.78007 | -112.17138 | 36977 ft | 552 kts | 73° |
| 2026-05-06 04:02 | 34.80252 | -112.08160 | 36972 ft | 557 kts | 76° |
| 2026-05-06 04:03 | 34.82415 | -111.99121 | 37015 ft | 557 kts | 75° |
| 2026-05-06 04:03 | 34.84634 | -111.90090 | 37046 ft | 557 kts | 75° |
| 2026-05-06 04:04 | 34.86884 | -111.81059 | 37046 ft | 557 kts | 75° |
| 2026-05-06 04:04 | 34.89145 | -111.71985 | 37039 ft | 561 kts | 75° |
| 2026-05-06 04:05 | 34.91403 | -111.62900 | 37026 ft | 561 kts | 75° |
| 2026-05-06 04:05 | 34.93660 | -111.53811 | 36953 ft | 561 kts | 75° |
| 2026-05-06 04:06 | 34.95921 | -111.44709 | 36955 ft | 561 kts | 75° |
| 2026-05-06 04:06 | 34.98163 | -111.35676 | 36952 ft | 561 kts | 75° |
| 2026-05-06 04:07 | 35.00424 | -111.26572 | 36941 ft | 560 kts | 75° |
| 2026-05-06 04:07 | 35.02698 | -111.17411 | 36940 ft | 561 kts | 75° |
| 2026-05-06 04:08 | 35.04950 | -111.08352 | 36950 ft | 562 kts | 75° |
| 2026-05-06 04:08 | 35.07227 | -110.99215 | 36980 ft | 562 kts | 75° |
| 2026-05-06 04:09 | 35.09514 | -110.90052 | 37003 ft | 549 kts | 75° |
| 2026-05-06 04:09 | 35.11737 | -110.81195 | 37029 ft | 557 kts | 75° |
| 2026-05-06 04:10 | 35.13964 | -110.72001 | 36996 ft | 566 kts | 83° |
| 2026-05-06 04:10 | 35.14335 | -110.67262 | 37129 ft | 558 kts | 93° |
| 2026-05-06 04:10 | 35.14307 | -110.62517 | 37026 ft | 558 kts | 96° |
| 2026-05-06 04:11 | 35.14184 | -110.57783 | 36851 ft | 558 kts | 96° |
| 2026-05-06 04:11 | 35.14109 | -110.53045 | 36848 ft | 558 kts | 92° |
| 2026-05-06 04:11 | 35.14549 | -110.48307 | 36868 ft | 565 kts | 79° |
| 2026-05-06 04:11 | 35.15549 | -110.43775 | 36882 ft | 571 kts | 75° |
| 2026-05-06 04:12 | 35.18103 | -110.34559 | 36906 ft | 573 kts | 72° |
| 2026-05-06 04:12 | 35.20665 | -110.25355 | 36911 ft | 572 kts | 74° |
| 2026-05-06 04:13 | 35.23043 | -110.16062 | 36912 ft | 572 kts | 76° |
| 2026-05-06 04:13 | 35.25239 | -110.06688 | 36918 ft | 575 kts | 77° |
| 2026-05-06 04:14 | 35.27301 | -109.97231 | 36918 ft | 575 kts | 78° |
| 2026-05-06 04:14 | 35.29242 | -109.87742 | 36907 ft | 574 kts | 79° |
| 2026-05-06 04:15 | 35.31097 | -109.78227 | 36896 ft | 577 kts | 80° |
| 2026-05-06 04:15 | 35.32911 | -109.68698 | 36917 ft | 579 kts | 80° |
| 2026-05-06 04:16 | 35.34708 | -109.59081 | 36920 ft | 579 kts | 81° |
| 2026-05-06 04:16 | 35.36469 | -109.49469 | 36918 ft | 578 kts | 81° |
| 2026-05-06 04:17 | 35.38218 | -109.39815 | 36917 ft | 582 kts | 81° |
| 2026-05-06 04:17 | 35.39972 | -109.30122 | 36945 ft | 582 kts | 81° |
| 2026-05-06 04:18 | 35.41721 | -109.20431 | 36977 ft | 583 kts | 81° |
| 2026-05-06 04:18 | 35.43547 | -109.10737 | 36984 ft | 585 kts | 81° |
| 2026-05-06 04:19 | 35.45427 | -109.00987 | 37015 ft | 588 kts | 80° |
| 2026-05-06 04:19 | 35.47338 | -108.91247 | 37071 ft | 587 kts | 80° |
| 2026-05-06 04:20 | 35.49254 | -108.81518 | 37112 ft | 583 kts | 82° |
| 2026-05-06 04:20 | 35.50423 | -108.76752 | 37072 ft | 587 kts | 69° |
| 2026-05-06 04:20 | 35.52070 | -108.72149 | 36918 ft | 590 kts | 68° |
| 2026-05-06 04:21 | 35.55032 | -108.62759 | 36919 ft | 589 kts | 73° |
| 2026-05-06 04:21 | 35.57698 | -108.53316 | 36921 ft | 589 kts | 73° |
| 2026-05-06 04:22 | 35.60495 | -108.43861 | 36912 ft | 589 kts | 72° |
| 2026-05-06 04:23 | 35.64748 | -108.29657 | 36906 ft | 590 kts | 72° |
| 2026-05-06 04:23 | 35.67573 | -108.20184 | 36908 ft | 590 kts | 72° |
| 2026-05-06 04:24 | 35.70393 | -108.10699 | 36907 ft | 590 kts | 72° |
| 2026-05-06 04:24 | 35.73211 | -108.01214 | 36903 ft | 590 kts | 72° |
| 2026-05-06 04:25 | 35.76028 | -107.91732 | 36906 ft | 590 kts | 72° |
| 2026-05-06 04:25 | 35.78849 | -107.82242 | 36898 ft | 590 kts | 72° |
| 2026-05-06 04:26 | 35.81669 | -107.72756 | 36868 ft | 591 kts | 72° |
| 2026-05-06 04:26 | 35.84510 | -107.63230 | 36882 ft | 592 kts | 72° |
| 2026-05-06 04:27 | 35.87354 | -107.53704 | 36884 ft | 592 kts | 72° |
| 2026-05-06 04:27 | 35.90196 | -107.44164 | 36880 ft | 592 kts | 72° |
| 2026-05-06 04:28 | 35.93039 | -107.34620 | 36875 ft | 596 kts | 72° |
| 2026-05-06 04:28 | 35.95909 | -107.25021 | 36878 ft | 596 kts | 72° |
| 2026-05-06 04:29 | 35.98780 | -107.15420 | 36923 ft | 594 kts | 72° |
| 2026-05-06 04:29 | 36.01604 | -107.05881 | 36895 ft | 590 kts | 72° |
| 2026-05-06 04:30 | 36.04417 | -106.96324 | 36887 ft | 592 kts | 72° |
| 2026-05-06 04:30 | 36.07216 | -106.86813 | 36885 ft | 593 kts | 72° |
| 2026-05-06 04:31 | 36.09934 | -106.77200 | 36893 ft | 591 kts | 76° |
| 2026-05-06 04:31 | 36.12098 | -106.67415 | 36870 ft | 592 kts | 79° |
| 2026-05-06 04:32 | 36.14118 | -106.57524 | 36881 ft | 593 kts | 79° |
| 2026-05-06 04:32 | 36.16118 | -106.47624 | 36900 ft | 593 kts | 79° |
| 2026-05-06 04:33 | 36.18135 | -106.37741 | 36910 ft | 593 kts | 79° |
| 2026-05-06 04:33 | 36.20167 | -106.27800 | 36895 ft | 597 kts | 79° |
| 2026-05-06 04:34 | 36.22222 | -106.17831 | 36885 ft | 598 kts | 79° |
| 2026-05-06 04:34 | 36.24289 | -106.07860 | 36873 ft | 598 kts | 79° |
| 2026-05-06 04:35 | 36.26364 | -105.97873 | 36855 ft | 598 kts | 79° |
| 2026-05-06 04:35 | 36.28428 | -105.87887 | 36869 ft | 599 kts | 79° |
| 2026-05-06 04:36 | 36.30490 | -105.77886 | 36873 ft | 599 kts | 79° |
| 2026-05-06 04:36 | 36.32560 | -105.67890 | 36911 ft | 599 kts | 79° |
| 2026-05-06 04:37 | 36.34633 | -105.57868 | 36961 ft | 602 kts | 79° |
| 2026-05-06 04:37 | 36.36722 | -105.47812 | 37023 ft | 602 kts | 79° |
| 2026-05-06 04:38 | 36.38795 | -105.37756 | 37076 ft | 602 kts | 79° |
| 2026-05-06 04:38 | 36.40867 | -105.27675 | 37081 ft | 604 kts | 79° |
| 2026-05-06 04:39 | 36.42950 | -105.17513 | 37076 ft | 607 kts | 79° |
| 2026-05-06 04:39 | 36.45048 | -105.07424 | 37013 ft | 607 kts | 78° |
| 2026-05-06 04:40 | 36.47182 | -104.97273 | 36840 ft | 608 kts | 78° |
| 2026-05-06 04:40 | 36.49325 | -104.87096 | 36822 ft | 611 kts | 78° |
| 2026-05-06 04:41 | 36.52117 | -104.77114 | 36816 ft | 614 kts | 68° |
| 2026-05-06 04:41 | 36.55095 | -104.67178 | 36823 ft | 613 kts | 73° |
| 2026-05-06 04:42 | 36.57928 | -104.57177 | 36991 ft | 612 kts | 72° |
| 2026-05-06 04:42 | 36.60877 | -104.47244 | 36974 ft | 612 kts | 71° |
| 2026-05-06 04:43 | 36.63824 | -104.37305 | 36956 ft | 612 kts | 71° |
| 2026-05-06 04:43 | 36.66748 | -104.27362 | 36929 ft | 611 kts | 72° |
| 2026-05-06 04:44 | 36.69673 | -104.17404 | 36887 ft | 614 kts | 72° |
| 2026-05-06 04:44 | 36.72616 | -104.07421 | 36871 ft | 614 kts | 72° |
| 2026-05-06 04:45 | 36.75567 | -103.97432 | 36879 ft | 614 kts | 72° |
| 2026-05-06 04:45 | 36.78511 | -103.87456 | 36900 ft | 614 kts | 72° |
| 2026-05-06 04:46 | 36.81466 | -103.77455 | 36916 ft | 614 kts | 72° |
| 2026-05-06 04:46 | 36.84426 | -103.67466 | 36933 ft | 614 kts | 72° |
| 2026-05-06 04:47 | 36.87381 | -103.57475 | 36940 ft | 614 kts | 72° |
| 2026-05-06 04:47 | 36.90316 | -103.47537 | 36934 ft | 615 kts | 72° |
| 2026-05-06 04:48 | 36.93267 | -103.37494 | 36939 ft | 616 kts | 72° |
| 2026-05-06 04:48 | 36.96216 | -103.27447 | 36949 ft | 616 kts | 72° |
| 2026-05-06 04:49 | 36.99166 | -103.17407 | 36978 ft | 613 kts | 72° |
| 2026-05-06 04:49 | 37.01610 | -103.09079 | 36951 ft | 616 kts | 72° |
| 2026-05-06 04:50 | 37.05052 | -102.97314 | 36950 ft | 615 kts | 71° |
| 2026-05-06 04:50 | 37.07501 | -102.88949 | 36950 ft | 616 kts | 71° |
| 2026-05-06 04:51 | 37.10456 | -102.78867 | 36956 ft | 616 kts | 71° |
| 2026-05-06 04:51 | 37.13413 | -102.68758 | 36950 ft | 619 kts | 71° |
| 2026-05-06 04:52 | 37.16371 | -102.58616 | 36959 ft | 619 kts | 71° |
| 2026-05-06 04:52 | 37.19329 | -102.48482 | 36949 ft | 619 kts | 71° |
| 2026-05-06 04:53 | 37.22293 | -102.38343 | 36953 ft | 620 kts | 71° |
| 2026-05-06 04:53 | 37.25250 | -102.28159 | 36967 ft | 621 kts | 71° |
| 2026-05-06 04:54 | 37.28197 | -102.17979 | 36987 ft | 621 kts | 71° |
| 2026-05-06 04:54 | 37.31150 | -102.07795 | 36982 ft | 621 kts | 71° |
| 2026-05-06 04:55 | 37.34133 | -101.97613 | 37002 ft | 622 kts | 71° |
| 2026-05-06 04:55 | 37.37313 | -101.87522 | 37001 ft | 620 kts | 58° |
| 2026-05-06 04:55 | 37.39786 | -101.83221 | 37135 ft | 612 kts | 42° |
| 2026-05-06 04:56 | 37.42910 | -101.79668 | 36987 ft | 604 kts | 34° |
| 2026-05-06 04:56 | 37.49061 | -101.72382 | 36977 ft | 601 kts | 28° |
| 2026-05-06 04:56 | 37.52610 | -101.69824 | 37160 ft | 579 kts | 13° |
| 2026-05-06 04:57 | 37.56351 | -101.68058 | 37037 ft | 574 kts | 9° |
| 2026-05-06 04:57 | 37.60039 | -101.65975 | 36963 ft | 591 kts | 22° |
| 2026-05-06 04:57 | 37.63377 | -101.62817 | 37003 ft | 610 kts | 39° |
| 2026-05-06 04:57 | 37.66104 | -101.58655 | 37015 ft | 620 kts | 54° |
| 2026-05-06 04:58 | 37.68239 | -101.53909 | 37035 ft | 623 kts | 62° |
| 2026-05-06 04:58 | 37.71962 | -101.44031 | 37055 ft | 623 kts | 64° |
| 2026-05-06 04:59 | 37.75590 | -101.34087 | 37054 ft | 623 kts | 65° |
| 2026-05-06 04:59 | 37.79082 | -101.24015 | 37019 ft | 627 kts | 66° |
| 2026-05-06 05:00 | 37.82516 | -101.13887 | 37017 ft | 627 kts | 66° |
| 2026-05-06 05:00 | 37.85937 | -101.03720 | 37029 ft | 628 kts | 66° |
| 2026-05-06 05:01 | 37.89337 | -100.93553 | 37045 ft | 627 kts | 67° |
| 2026-05-06 05:01 | 37.92727 | -100.83367 | 37060 ft | 627 kts | 67° |
| 2026-05-06 05:02 | 37.96105 | -100.73180 | 37065 ft | 627 kts | 67° |
| 2026-05-06 05:02 | 37.99474 | -100.62984 | 37026 ft | 627 kts | 67° |
| 2026-05-06 05:03 | 38.02838 | -100.52763 | 37026 ft | 629 kts | 67° |
| 2026-05-06 05:03 | 38.06201 | -100.42517 | 37036 ft | 629 kts | 67° |
| 2026-05-06 05:04 | 38.09554 | -100.32263 | 37040 ft | 629 kts | 67° |
| 2026-05-06 05:04 | 38.12901 | -100.21987 | 37034 ft | 629 kts | 67° |
| 2026-05-06 05:05 | 38.16214 | -100.11777 | 37034 ft | 629 kts | 67° |
| 2026-05-06 05:05 | 38.19542 | -100.01489 | 37037 ft | 629 kts | 67° |
| 2026-05-06 05:06 | 38.22858 | -99.91197 | 37045 ft | 630 kts | 68° |
| 2026-05-06 05:06 | 38.25877 | -99.80782 | 37044 ft | 626 kts | 78° |
| 2026-05-06 05:07 | 38.27550 | -99.69933 | 37051 ft | 625 kts | 83° |
| 2026-05-06 05:07 | 38.29149 | -99.59059 | 37055 ft | 626 kts | 81° |
| 2026-05-06 05:08 | 38.31081 | -99.48252 | 37054 ft | 627 kts | 77° |
| 2026-05-06 05:08 | 38.33381 | -99.37515 | 37065 ft | 629 kts | 74° |
| 2026-05-06 05:09 | 38.36001 | -99.26876 | 37061 ft | 629 kts | 72° |
| 2026-05-06 05:09 | 38.38885 | -99.16348 | 37064 ft | 630 kts | 70° |
| 2026-05-06 05:10 | 38.41965 | -99.05968 | 37072 ft | 631 kts | 68° |
| 2026-05-06 05:10 | 38.45227 | -98.95572 | 37079 ft | 631 kts | 67° |
| 2026-05-06 05:11 | 38.48614 | -98.85256 | 37083 ft | 631 kts | 66° |
| 2026-05-06 05:11 | 38.52112 | -98.74972 | 37074 ft | 631 kts | 65° |
| 2026-05-06 05:12 | 38.55681 | -98.64722 | 37065 ft | 632 kts | 64° |
| 2026-05-06 05:12 | 38.59298 | -98.54482 | 37094 ft | 630 kts | 64° |
| 2026-05-06 05:13 | 38.62949 | -98.44310 | 37056 ft | 629 kts | 64° |
| 2026-05-06 05:13 | 38.66602 | -98.34209 | 37060 ft | 629 kts | 63° |
| 2026-05-06 05:14 | 38.70279 | -98.24031 | 37058 ft | 630 kts | 63° |
| 2026-05-06 05:14 | 38.73957 | -98.13838 | 37062 ft | 630 kts | 63° |
| 2026-05-06 05:15 | 38.77633 | -98.03645 | 37079 ft | 630 kts | 63° |
| 2026-05-06 05:15 | 38.81301 | -97.93451 | 37051 ft | 631 kts | 63° |
| 2026-05-06 05:16 | 38.84976 | -97.83220 | 37066 ft | 631 kts | 63° |
| 2026-05-06 05:16 | 38.88653 | -97.73016 | 37102 ft | 629 kts | 63° |
| 2026-05-06 05:17 | 38.92333 | -97.62834 | 37083 ft | 629 kts | 63° |
| 2026-05-06 05:17 | 38.96496 | -97.53040 | 37061 ft | 617 kts | 43° |
| 2026-05-06 05:17 | 38.99526 | -97.49246 | 37070 ft | 601 kts | 27° |
| 2026-05-06 05:18 | 39.03031 | -97.46576 | 37019 ft | 574 kts | 10° |
| 2026-05-06 05:18 | 39.06741 | -97.44991 | 37093 ft | 559 kts | 5° |
| 2026-05-06 05:18 | 39.10403 | -97.43015 | 36880 ft | 587 kts | 21° |
| 2026-05-06 05:18 | 39.13762 | -97.39889 | 36997 ft | 602 kts | 33° |
| 2026-05-06 05:19 | 39.16845 | -97.36207 | 37033 ft | 608 kts | 37° |
| 2026-05-06 05:19 | 39.22892 | -97.28678 | 37055 ft | 606 kts | 35° |
| 2026-05-06 05:20 | 39.29179 | -97.21477 | 37061 ft | 603 kts | 32° |
| 2026-05-06 05:20 | 39.35562 | -97.14450 | 37062 ft | 603 kts | 32° |
| 2026-05-06 05:21 | 39.41937 | -97.07444 | 37086 ft | 601 kts | 32° |
| 2026-05-06 05:21 | 39.48296 | -97.00415 | 37070 ft | 601 kts | 32° |
| 2026-05-06 05:22 | 39.54669 | -96.93428 | 37031 ft | 594 kts | 26° |
| 2026-05-06 05:22 | 39.58194 | -96.90893 | 37125 ft | 565 kts | 8° |
| 2026-05-06 05:22 | 39.61893 | -96.89500 | 37123 ft | 547 kts | 359° |
| 2026-05-06 05:22 | 39.65606 | -96.88357 | 37001 ft | 554 kts | 4° |
| 2026-05-06 05:23 | 39.69275 | -96.86565 | 36952 ft | 573 kts | 15° |
| 2026-05-06 05:23 | 39.72790 | -96.84008 | 36972 ft | 585 kts | 23° |
| 2026-05-06 05:23 | 39.79529 | -96.77936 | 37034 ft | 591 kts | 26° |
| 2026-05-06 05:24 | 39.86200 | -96.71673 | 37081 ft | 590 kts | 27° |
| 2026-05-06 05:24 | 39.92818 | -96.65306 | 37063 ft | 591 kts | 28° |
| 2026-05-06 05:25 | 39.99394 | -96.58871 | 37058 ft | 591 kts | 28° |
| 2026-05-06 05:25 | 40.05970 | -96.52402 | 37059 ft | 592 kts | 28° |
| 2026-05-06 05:26 | 40.12436 | -96.46008 | 37082 ft | 585 kts | 29° |
| 2026-05-06 05:26 | 40.18930 | -96.39577 | 37067 ft | 586 kts | 29° |
| 2026-05-06 05:27 | 40.25420 | -96.33134 | 37053 ft | 586 kts | 29° |
| 2026-05-06 05:27 | 40.31907 | -96.26673 | 37091 ft | 582 kts | 30° |
| 2026-05-06 05:28 | 40.38335 | -96.20248 | 37062 ft | 581 kts | 29° |
| 2026-05-06 05:28 | 40.44766 | -96.13816 | 37047 ft | 581 kts | 30° |
| 2026-05-06 05:29 | 40.51184 | -96.07377 | 37060 ft | 582 kts | 29° |
| 2026-05-06 05:29 | 40.57634 | -96.00895 | 37067 ft | 584 kts | 29° |
| 2026-05-06 05:30 | 40.64083 | -95.94391 | 37064 ft | 584 kts | 29° |
| 2026-05-06 05:30 | 40.70521 | -95.87883 | 37061 ft | 584 kts | 29° |
| 2026-05-06 05:31 | 40.76964 | -95.81354 | 37115 ft | 580 kts | 30° |
| 2026-05-06 05:31 | 40.83315 | -95.74893 | 37070 ft | 576 kts | 30° |
| 2026-05-06 05:32 | 40.89674 | -95.68420 | 37050 ft | 579 kts | 30° |
| 2026-05-06 05:32 | 40.96050 | -95.61916 | 37045 ft | 579 kts | 30° |
| 2026-05-06 05:33 | 41.02407 | -95.55407 | 37084 ft | 573 kts | 31° |
| 2026-05-06 05:33 | 41.08700 | -95.48943 | 37059 ft | 572 kts | 31° |
| 2026-05-06 05:34 | 41.14987 | -95.42478 | 37051 ft | 572 kts | 31° |
| 2026-05-06 05:34 | 41.21230 | -95.36041 | 37048 ft | 572 kts | 31° |
| 2026-05-06 05:35 | 41.27486 | -95.29571 | 37051 ft | 569 kts | 31° |
| 2026-05-06 05:35 | 41.33733 | -95.23100 | 37037 ft | 569 kts | 31° |
| 2026-05-06 05:36 | 41.39973 | -95.16618 | 37035 ft | 569 kts | 31° |
| 2026-05-06 05:36 | 41.46216 | -95.10115 | 37068 ft | 566 kts | 31° |
| 2026-05-06 05:37 | 41.52394 | -95.03658 | 37053 ft | 565 kts | 31° |
| 2026-05-06 05:37 | 41.58584 | -94.97180 | 37046 ft | 565 kts | 31° |
| 2026-05-06 05:38 | 41.64720 | -94.90599 | 37042 ft | 568 kts | 34° |
| 2026-05-06 05:38 | 41.69674 | -94.84851 | 37071 ft | 565 kts | 35° |
| 2026-05-06 05:39 | 41.75614 | -94.77964 | 37049 ft | 565 kts | 34° |
| 2026-05-06 05:39 | 41.81595 | -94.71153 | 37040 ft | 564 kts | 34° |
| 2026-05-06 05:40 | 41.87614 | -94.64421 | 37043 ft | 563 kts | 33° |
| 2026-05-06 05:40 | 41.93664 | -94.57769 | 37062 ft | 561 kts | 33° |
| 2026-05-06 05:41 | 41.99746 | -94.51191 | 37039 ft | 561 kts | 32° |
| 2026-05-06 05:41 | 42.05849 | -94.44643 | 37034 ft | 561 kts | 32° |
| 2026-05-06 05:42 | 42.11957 | -94.38124 | 37067 ft | 560 kts | 32° |
| 2026-05-06 05:42 | 42.18075 | -94.31634 | 37051 ft | 559 kts | 32° |
| 2026-05-06 05:43 | 42.24147 | -94.25209 | 37041 ft | 559 kts | 32° |
| 2026-05-06 05:43 | 42.30270 | -94.18723 | 37037 ft | 559 kts | 32° |
| 2026-05-06 05:44 | 42.36389 | -94.12228 | 37050 ft | 558 kts | 32° |
| 2026-05-06 05:44 | 42.42499 | -94.05744 | 37010 ft | 558 kts | 32° |
| 2026-05-06 05:45 | 42.48610 | -93.99237 | 37014 ft | 558 kts | 32° |
| 2026-05-06 05:45 | 42.54708 | -93.92713 | 37033 ft | 558 kts | 32° |
| 2026-05-06 05:46 | 42.60791 | -93.86185 | 37033 ft | 557 kts | 32° |
| 2026-05-06 05:46 | 42.66862 | -93.79646 | 37006 ft | 558 kts | 33° |
| 2026-05-06 05:47 | 42.72944 | -93.73065 | 37007 ft | 558 kts | 33° |
| 2026-05-06 05:47 | 42.79003 | -93.66477 | 37009 ft | 558 kts | 33° |
| 2026-05-06 05:48 | 42.85057 | -93.59873 | 37010 ft | 558 kts | 33° |
| 2026-05-06 05:48 | 42.91113 | -93.53236 | 37003 ft | 558 kts | 33° |
| 2026-05-06 05:49 | 42.97148 | -93.46587 | 37038 ft | 558 kts | 33° |
| 2026-05-06 05:49 | 43.03069 | -93.39667 | 36999 ft | 565 kts | 42° |
| 2026-05-06 05:50 | 43.08766 | -93.32362 | 36994 ft | 562 kts | 37° |
| 2026-05-06 05:50 | 43.13844 | -93.24199 | 37049 ft | 574 kts | 62° |
| 2026-05-06 05:51 | 43.15240 | -93.19060 | 36931 ft | 578 kts | 79° |
| 2026-05-06 05:51 | 43.15641 | -93.13694 | 36918 ft | 575 kts | 95° |
| 2026-05-06 05:51 | 43.15048 | -93.08342 | 36948 ft | 565 kts | 112° |
| 2026-05-06 05:51 | 43.13510 | -93.03462 | 36959 ft | 551 kts | 129° |
| 2026-05-06 05:52 | 43.11223 | -92.99372 | 37008 ft | 536 kts | 141° |
| 2026-05-06 05:52 | 43.08781 | -92.95485 | 36985 ft | 546 kts | 130° |
| 2026-05-06 05:52 | 43.07001 | -92.90834 | 36982 ft | 562 kts | 114° |
| 2026-05-06 05:52 | 43.06125 | -92.85583 | 36984 ft | 572 kts | 98° |
| 2026-05-06 05:53 | 43.06086 | -92.74667 | 36992 ft | 576 kts | 90° |
| 2026-05-06 05:53 | 43.06133 | -92.63734 | 36982 ft | 575 kts | 94° |
| 2026-05-06 05:54 | 43.05781 | -92.52817 | 36986 ft | 574 kts | 96° |
| 2026-05-06 05:54 | 43.05266 | -92.41931 | 36991 ft | 574 kts | 97° |
| 2026-05-06 05:55 | 43.04734 | -92.31055 | 36993 ft | 574 kts | 97° |
| 2026-05-06 05:55 | 43.04221 | -92.20172 | 36989 ft | 574 kts | 96° |
| 2026-05-06 05:56 | 43.03721 | -92.09274 | 36997 ft | 574 kts | 96° |
| 2026-05-06 05:56 | 43.03230 | -91.98390 | 36994 ft | 574 kts | 96° |
| 2026-05-06 05:57 | 43.02742 | -91.87502 | 36976 ft | 575 kts | 96° |
| 2026-05-06 05:57 | 43.02222 | -91.76604 | 36967 ft | 573 kts | 102° |
| 2026-05-06 05:58 | 43.01244 | -91.71403 | 37047 ft | 561 kts | 117° |
| 2026-05-06 05:58 | 42.99685 | -91.66523 | 36998 ft | 562 kts | 119° |
| 2026-05-06 05:58 | 42.98282 | -91.61516 | 36895 ft | 568 kts | 111° |
| 2026-05-06 05:58 | 42.97356 | -91.56336 | 36853 ft | 573 kts | 103° |
| 2026-05-06 05:59 | 42.96345 | -91.45511 | 36953 ft | 575 kts | 101° |
| 2026-05-06 05:59 | 42.95217 | -91.34720 | 36980 ft | 575 kts | 101° |
| 2026-05-06 06:00 | 42.94201 | -91.23880 | 36979 ft | 576 kts | 99° |
| 2026-05-06 06:00 | 42.93294 | -91.13017 | 36754 ft | 577 kts | 99° |
| 2026-05-06 06:01 | 42.92845 | -91.07634 | 36242 ft | 562 kts | 99° |
| 2026-05-06 06:01 | 42.92410 | -91.02414 | 35750 ft | 546 kts | 99° |
| 2026-05-06 06:01 | 42.91982 | -90.97311 | 35236 ft | 541 kts | 99° |
| 2026-05-06 06:01 | 42.91546 | -90.92198 | 34653 ft | 543 kts | 99° |
| 2026-05-06 06:02 | 42.91107 | -90.87080 | 34093 ft | 543 kts | 99° |
| 2026-05-06 06:02 | 42.90670 | -90.81965 | 33419 ft | 543 kts | 99° |
| 2026-05-06 06:02 | 42.90234 | -90.76851 | 32749 ft | 542 kts | 99° |
| 2026-05-06 06:02 | 42.89796 | -90.71745 | 32066 ft | 541 kts | 100° |
| 2026-05-06 06:03 | 42.89358 | -90.66666 | 31442 ft | 540 kts | 100° |
| 2026-05-06 06:03 | 42.88923 | -90.61655 | 30818 ft | 538 kts | 100° |
| 2026-05-06 06:03 | 42.88482 | -90.56605 | 30207 ft | 536 kts | 100° |
| 2026-05-06 06:03 | 42.88032 | -90.51567 | 29524 ft | 534 kts | 101° |
| 2026-05-06 06:04 | 42.87558 | -90.46547 | 28823 ft | 534 kts | 101° |
| 2026-05-06 06:04 | 42.87069 | -90.41523 | 28143 ft | 535 kts | 101° |
| 2026-05-06 06:04 | 42.86587 | -90.36475 | 27470 ft | 537 kts | 101° |
| 2026-05-06 06:04 | 42.86120 | -90.31419 | 26821 ft | 538 kts | 101° |
| 2026-05-06 06:05 | 42.85661 | -90.26342 | 26189 ft | 540 kts | 100° |
| 2026-05-06 06:05 | 42.85202 | -90.21263 | 25580 ft | 542 kts | 101° |
| 2026-05-06 06:05 | 42.84737 | -90.16162 | 24976 ft | 543 kts | 101° |
| 2026-05-06 06:05 | 42.84179 | -90.11118 | 24374 ft | 525 kts | 106° |
| 2026-05-06 06:06 | 42.83240 | -90.06469 | 23686 ft | 496 kts | 115° |
| 2026-05-06 06:06 | 42.82046 | -90.02165 | 22907 ft | 475 kts | 118° |
| 2026-05-06 06:06 | 42.80837 | -89.98023 | 22058 ft | 468 kts | 117° |
| 2026-05-06 06:06 | 42.79681 | -89.93891 | 21260 ft | 464 kts | 116° |
| 2026-05-06 06:07 | 42.78562 | -89.89805 | 20514 ft | 458 kts | 116° |
| 2026-05-06 06:07 | 42.77677 | -89.85634 | 19766 ft | 459 kts | 107° |
| 2026-05-06 06:07 | 42.77046 | -89.81403 | 19042 ft | 454 kts | 106° |
| 2026-05-06 06:07 | 42.76395 | -89.77232 | 18342 ft | 446 kts | 108° |
| 2026-05-06 06:08 | 42.75669 | -89.73387 | 17588 ft | 429 kts | 111° |
| 2026-05-06 06:08 | 42.74908 | -89.70001 | 16907 ft | 415 kts | 113° |
| 2026-05-06 06:08 | 42.73969 | -89.66366 | 16289 ft | 399 kts | 116° |
| 2026-05-06 06:08 | 42.72981 | -89.62904 | 15665 ft | 386 kts | 117° |
| 2026-05-06 06:09 | 42.71968 | -89.59584 | 15064 ft | 375 kts | 118° |
| 2026-05-06 06:09 | 42.70944 | -89.56373 | 14487 ft | 365 kts | 118° |
| 2026-05-06 06:09 | 42.69919 | -89.53253 | 13911 ft | 358 kts | 119° |
| 2026-05-06 06:09 | 42.68899 | -89.50203 | 13278 ft | 351 kts | 119° |
| 2026-05-06 06:10 | 42.67887 | -89.47217 | 12635 ft | 344 kts | 118° |
| 2026-05-06 06:10 | 42.66901 | -89.44315 | 12287 ft | 330 kts | 118° |
| 2026-05-06 06:10 | 42.65966 | -89.41545 | 12008 ft | 318 kts | 118° |
| 2026-05-06 06:10 | 42.65050 | -89.38811 | 11742 ft | 318 kts | 118° |
| 2026-05-06 06:11 | 42.64138 | -89.36082 | 11517 ft | 317 kts | 117° |
| 2026-05-06 06:11 | 42.63240 | -89.33363 | 11254 ft | 314 kts | 116° |
| 2026-05-06 06:11 | 42.62381 | -89.30655 | 11160 ft | 312 kts | 115° |
| 2026-05-06 06:11 | 42.61545 | -89.27929 | 11045 ft | 311 kts | 115° |
| 2026-05-06 06:12 | 42.60729 | -89.25218 | 11013 ft | 311 kts | 115° |
| 2026-05-06 06:12 | 42.59922 | -89.22490 | 11011 ft | 312 kts | 114° |
| 2026-05-06 06:12 | 42.59119 | -89.19742 | 11009 ft | 313 kts | 114° |
| 2026-05-06 06:12 | 42.58321 | -89.16996 | 11014 ft | 313 kts | 114° |
| 2026-05-06 06:13 | 42.57534 | -89.14281 | 11023 ft | 313 kts | 114° |
| 2026-05-06 06:13 | 42.56727 | -89.11491 | 11020 ft | 313 kts | 114° |
| 2026-05-06 06:13 | 42.55942 | -89.08774 | 11017 ft | 313 kts | 114° |
| 2026-05-06 06:13 | 42.55148 | -89.06025 | 11015 ft | 313 kts | 114° |
| 2026-05-06 06:14 | 42.54354 | -89.03276 | 11016 ft | 313 kts | 114° |
| 2026-05-06 06:14 | 42.53558 | -89.00515 | 11008 ft | 313 kts | 114° |
| 2026-05-06 06:14 | 42.52689 | -88.97815 | 11007 ft | 313 kts | 117° |
| 2026-05-06 06:14 | 42.51801 | -88.95126 | 11009 ft | 313 kts | 116° |
| 2026-05-06 06:15 | 42.50962 | -88.92396 | 11010 ft | 313 kts | 115° |
| 2026-05-06 06:15 | 42.50147 | -88.89662 | 11013 ft | 313 kts | 114° |
| 2026-05-06 06:15 | 42.49336 | -88.86925 | 11012 ft | 313 kts | 114° |
| 2026-05-06 06:15 | 42.48523 | -88.84186 | 11009 ft | 313 kts | 114° |
| 2026-05-06 06:16 | 42.47704 | -88.81448 | 11011 ft | 314 kts | 114° |
| 2026-05-06 06:16 | 42.46900 | -88.78703 | 11015 ft | 314 kts | 114° |
| 2026-05-06 06:16 | 42.46110 | -88.75939 | 11015 ft | 314 kts | 113° |
| 2026-05-06 06:16 | 42.45330 | -88.73174 | 11016 ft | 314 kts | 113° |
| 2026-05-06 06:17 | 42.44553 | -88.70410 | 11016 ft | 314 kts | 113° |
| 2026-05-06 06:17 | 42.43778 | -88.67647 | 11018 ft | 314 kts | 113° |
| 2026-05-06 06:17 | 42.43012 | -88.64915 | 11019 ft | 314 kts | 113° |
| 2026-05-06 06:17 | 42.42238 | -88.62151 | 11013 ft | 314 kts | 113° |
| 2026-05-06 06:18 | 42.41463 | -88.59386 | 11015 ft | 314 kts | 113° |
| 2026-05-06 06:18 | 42.40689 | -88.56620 | 11015 ft | 314 kts | 113° |
| 2026-05-06 06:18 | 42.39916 | -88.53857 | 11010 ft | 314 kts | 113° |
| 2026-05-06 06:18 | 42.39138 | -88.51090 | 10999 ft | 314 kts | 113° |
| 2026-05-06 06:19 | 42.38358 | -88.48334 | 11003 ft | 313 kts | 114° |
| 2026-05-06 06:19 | 42.37425 | -88.45681 | 10999 ft | 311 kts | 121° |
| 2026-05-06 06:19 | 42.36331 | -88.43158 | 11006 ft | 310 kts | 124° |
| 2026-05-06 06:19 | 42.35182 | -88.40693 | 10931 ft | 311 kts | 126° |
| 2026-05-06 06:20 | 42.34010 | -88.38251 | 10681 ft | 309 kts | 126° |
| 2026-05-06 06:20 | 42.32832 | -88.35831 | 10443 ft | 307 kts | 126° |
| 2026-05-06 06:20 | 42.31653 | -88.33434 | 10193 ft | 306 kts | 126° |
| 2026-05-06 06:20 | 42.30470 | -88.31049 | 9940 ft | 304 kts | 126° |
| 2026-05-06 06:21 | 42.29289 | -88.28685 | 9696 ft | 303 kts | 126° |
| 2026-05-06 06:21 | 42.28111 | -88.26343 | 9414 ft | 301 kts | 126° |
| 2026-05-06 06:21 | 42.27087 | -88.23898 | 9131 ft | 299 kts | 109° |
| 2026-05-06 06:21 | 42.26647 | -88.21179 | 9029 ft | 297 kts | 96° |
| 2026-05-06 06:22 | 42.26481 | -88.18409 | 9014 ft | 296 kts | 91° |
| 2026-05-06 06:22 | 42.26409 | -88.15623 | 9003 ft | 296 kts | 90° |
| 2026-05-06 06:22 | 42.26371 | -88.12843 | 8999 ft | 296 kts | 89° |
| 2026-05-06 06:22 | 42.26346 | -88.10065 | 9001 ft | 296 kts | 89° |
| 2026-05-06 06:23 | 42.26327 | -88.07287 | 9005 ft | 296 kts | 89° |
| 2026-05-06 06:23 | 42.26315 | -88.04510 | 9001 ft | 296 kts | 89° |
| 2026-05-06 06:23 | 42.26306 | -88.01738 | 8996 ft | 295 kts | 89° |
| 2026-05-06 06:23 | 42.26300 | -87.98961 | 9001 ft | 295 kts | 89° |
| 2026-05-06 06:24 | 42.26294 | -87.96194 | 9002 ft | 295 kts | 89° |
| 2026-05-06 06:24 | 42.26289 | -87.93418 | 9000 ft | 296 kts | 89° |
| 2026-05-06 06:24 | 42.26285 | -87.90647 | 9000 ft | 295 kts | 89° |
| 2026-05-06 06:24 | 42.26281 | -87.87870 | 9000 ft | 295 kts | 89° |
| 2026-05-06 06:25 | 42.26278 | -87.85092 | 9000 ft | 296 kts | 89° |
| 2026-05-06 06:25 | 42.26277 | -87.82324 | 8992 ft | 296 kts | 89° |
| 2026-05-06 06:25 | 42.26274 | -87.76769 | 8996 ft | 296 kts | 89° |
| 2026-05-06 06:26 | 42.26274 | -87.74031 | 8999 ft | 296 kts | 89° |
| 2026-05-06 06:26 | 42.26276 | -87.71253 | 8917 ft | 296 kts | 89° |
| 2026-05-06 06:26 | 42.26280 | -87.68475 | 8729 ft | 295 kts | 89° |
| 2026-05-06 06:26 | 42.26255 | -87.65723 | 8562 ft | 293 kts | 96° |
| 2026-05-06 06:27 | 42.25660 | -87.63122 | 8370 ft | 289 kts | 121° |
| 2026-05-06 06:27 | 42.24381 | -87.61075 | 8048 ft | 284 kts | 145° |
| 2026-05-06 06:27 | 42.22702 | -87.59752 | 7734 ft | 278 kts | 159° |
| 2026-05-06 06:27 | 42.20922 | -87.58781 | 7377 ft | 272 kts | 163° |
| 2026-05-06 06:28 | 42.19221 | -87.57989 | 7064 ft | 249 kts | 165° |
| 2026-05-06 06:28 | 42.17627 | -87.57290 | 6891 ft | 235 kts | 165° |
| 2026-05-06 06:28 | 42.16062 | -87.56629 | 6823 ft | 237 kts | 166° |
| 2026-05-06 06:28 | 42.14482 | -87.55976 | 6791 ft | 238 kts | 166° |
| 2026-05-06 06:29 | 42.12898 | -87.55327 | 6517 ft | 238 kts | 166° |
| 2026-05-06 06:29 | 42.11312 | -87.54714 | 6184 ft | 235 kts | 171° |
| 2026-05-06 06:29 | 42.10243 | -87.54559 | 5934 ft | 233 kts | 180° |
| 2026-05-06 06:29 | 42.08626 | -87.54596 | 5588 ft | 232 kts | 185° |
| 2026-05-06 06:30 | 42.07025 | -87.54750 | 5281 ft | 230 kts | 187° |
| 2026-05-06 06:30 | 42.05431 | -87.54986 | 5025 ft | 230 kts | 191° |
| 2026-05-06 06:30 | 42.03851 | -87.55325 | 4760 ft | 230 kts | 192° |
| 2026-05-06 06:30 | 42.02274 | -87.55706 | 4486 ft | 230 kts | 192° |
| 2026-05-06 06:31 | 42.00744 | -87.56102 | 4225 ft | 217 kts | 194° |
| 2026-05-06 06:31 | 41.99349 | -87.56711 | 3927 ft | 206 kts | 204° |
| 2026-05-06 06:31 | 41.98059 | -87.57452 | 3651 ft | 198 kts | 206° |
| 2026-05-06 06:31 | 41.96830 | -87.58206 | 3505 ft | 193 kts | 206° |
| 2026-05-06 06:32 | 41.95795 | -87.59319 | 3404 ft | 192 kts | 240° |
| 2026-05-06 06:32 | 41.95497 | -87.60992 | 3337 ft | 184 kts | 281° |
| 2026-05-06 06:32 | 41.95921 | -87.62566 | 3464 ft | 180 kts | 297° |
| 2026-05-06 06:32 | 41.96280 | -87.64204 | 3486 ft | 184 kts | 284° |
| 2026-05-06 06:33 | 41.96417 | -87.65918 | 3489 ft | 184 kts | 277° |
| 2026-05-06 06:33 | 41.96452 | -87.67617 | 3808 ft | 181 kts | 273° |
| 2026-05-06 06:33 | 41.96396 | -87.69339 | 4016 ft | 187 kts | 272° |
| 2026-05-06 06:33 | 41.96351 | -87.71092 | 3693 ft | 187 kts | 273° |
| 2026-05-06 06:34 | 41.96356 | -87.72819 | 3317 ft | 183 kts | 275° |
| 2026-05-06 06:34 | 41.96368 | -87.74526 | 2947 ft | 184 kts | 275° |
| 2026-05-06 06:34 | 41.96427 | -87.76239 | 2746 ft | 184 kts | 279° |
| 2026-05-06 06:34 | 41.96541 | -87.77873 | 2427 ft | 172 kts | 281° |
| 2026-05-06 06:35 | 41.96584 | -87.79429 | 2105 ft | 163 kts | 276° |
| 2026-05-06 06:35 | 41.96580 | -87.80915 | 1849 ft | 156 kts | 276° |
| 2026-05-06 06:35 | 41.96573 | -87.82358 | 1723 ft | 153 kts | 276° |
| 2026-05-06 06:35 | 41.96582 | -87.83804 | 1489 ft | 156 kts | 277° |
| 2026-05-06 06:36 | 41.96608 | -87.85264 | 1308 ft | 157 kts | 275° |
| 2026-05-06 06:36 | 41.96602 | -87.86722 | 1132 ft | 156 kts | 272° |
| 2026-05-06 06:36 | 41.96582 | -87.88168 | 898 ft | 155 kts | 272° |
| 2026-05-06 06:36 | 41.96565 | -87.89498 | 725 ft | 154 kts | 273° |
| 2026-05-06 06:37 | 41.96568 | -87.90925 | 671 ft | 151 kts | 273° |
| 2026-05-06 06:37 | 41.96569 | -87.92034 | 675 ft | 63 kts | 268° |
| 2026-05-06 06:37 | 41.96570 | -87.92440 | 675 ft | 27 kts | 280° |
| 2026-05-06 06:37 | 41.96682 | -87.92532 | 674 ft | 18 kts | 359° |
| 2026-05-06 06:38 | 41.96818 | -87.92537 | 672 ft | 21 kts | 0° |
| 2026-05-06 06:38 | 41.96957 | -87.92541 | 673 ft | 19 kts | 1° |
| 2026-05-06 06:38 | 41.97026 | -87.92527 | 673 ft | 4 kts | 49° |
| 2026-05-06 06:38 | 41.97041 | -87.92453 | 673 ft | 13 kts | 82° |
| 2026-05-06 06:39 | 41.97043 | -87.92293 | 673 ft | 21 kts | 95° |
| 2026-05-06 06:39 | 41.97034 | -87.92083 | 674 ft | 25 kts | 90° |
| 2026-05-06 06:39 | 41.97038 | -87.91809 | 674 ft | 33 kts | 89° |
| 2026-05-06 06:39 | 41.97038 | -87.91514 | 675 ft | 34 kts | 88° |
| 2026-05-06 06:40 | 41.97042 | -87.91257 | 674 ft | 26 kts | 89° |
| 2026-05-06 06:40 | 41.97043 | -87.90987 | 672 ft | 27 kts | 92° |
| 2026-05-06 06:40 | 41.97042 | -87.90697 | 673 ft | 35 kts | 89° |
| 2026-05-06 06:40 | 41.97042 | -87.90536 | 673 ft | 15 kts | 91° |
| 2026-05-06 06:41 | 41.97094 | -87.90487 | 673 ft | 12 kts | 1° |
| 2026-05-06 06:41 | 41.97137 | -87.90460 | 674 ft | 4 kts | 78° |
| 2026-05-06 06:41 | 41.97158 | -87.90420 | 672 ft | 7 kts | 13° |
| 2026-05-06 06:41 | 41.97230 | -87.90439 | 674 ft | 14 kts | 354° |
| 2026-05-06 06:42 | 41.97316 | -87.90442 | 674 ft | 8 kts | 360° |
| 2026-05-06 06:42 | 41.97358 | -87.90440 | 674 ft | 3 kts | 2° |
| 2026-05-06 06:42 | 41.97375 | -87.90430 | 674 ft | 3 kts | 49° |
| 2026-05-06 06:42 | 41.97381 | -87.90395 | 674 ft | 4 kts | 86° |
| 2026-05-06 06:43 | 41.97381 | -87.90380 | 674 ft | 0 kts | 86° |